sensor_id;sensor_type;location;lat;lon;timestamp;pressure;altitude;pressure_sealevel;temperature;humidity
52777;BME280;38656;54.260;20.822;2023-02-21T00:01:57;99076.22;;;23.74;40.84
52777;BME280;38656;54.260;20.822;2023-02-21T00:04:42;99077.88;;;22.17;42.38
52777;BME280;38656;54.260;20.822;2023-02-21T00:07:27;99067.16;;;22.41;41.45
52777;BME280;38656;54.260;20.822;2023-02-21T00:10:13;99065.13;;;21.16;43.52
52777;BME280;38656;54.260;20.822;2023-02-21T00:12:58;99073.59;;;20.64;44.09
52777;BME280;38656;54.260;20.822;2023-02-21T00:15:43;99069.13;;;20.77;43.14
52777;BME280;38656;54.260;20.822;2023-02-21T00:18:27;99083.25;;;21.21;43.10
52777;BME280;38656;54.260;20.822;2023-02-21T00:21:16;99086.78;;;20.47;43.76
52777;BME280;38656;54.260;20.822;2023-02-21T00:24:01;99079.09;;;20.51;44.33
52777;BME280;38656;54.260;20.822;2023-02-21T00:26:45;99078.47;;;19.48;45.24
52777;BME280;38656;54.260;20.822;2023-02-21T00:29:30;99064.03;;;21.06;41.15
52777;BME280;38656;54.260;20.822;2023-02-21T00:32:15;99072.25;;;20.55;43.54
52777;BME280;38656;54.260;20.822;2023-02-21T00:35:00;99080.78;;;20.45;43.34
52777;BME280;38656;54.260;20.822;2023-02-21T00:37:48;99065.34;;;21.33;41.66
52777;BME280;38656;54.260;20.822;2023-02-21T00:40:32;99085.88;;;20.10;43.24
52777;BME280;38656;54.260;20.822;2023-02-21T00:43:17;99074.81;;;22.85;40.59
52777;BME280;38656;54.260;20.822;2023-02-21T00:46:01;99084.91;;;22.30;41.95
52777;BME280;38656;54.260;20.822;2023-02-21T00:48:46;99079.09;;;20.51;45.34
52777;BME280;38656;54.260;20.822;2023-02-21T00:51:31;99061.81;;;20.65;44.17
52777;BME280;38656;54.260;20.822;2023-02-21T00:54:16;99074.38;;;19.00;45.83
52777;BME280;38656;54.260;20.822;2023-02-21T00:57:00;99079.28;;;22.67;41.51
52777;BME280;38656;54.260;20.822;2023-02-21T00:59:45;99077.97;;;20.59;43.58
52777;BME280;38656;54.260;20.822;2023-02-21T01:02:30;99083.09;;;19.66;43.86
52777;BME280;38656;54.260;20.822;2023-02-21T01:05:15;99074.16;;;22.06;42.76
52777;BME280;38656;54.260;20.822;2023-02-21T01:08:00;99072.97;;;21.18;42.26
52777;BME280;38656;54.260;20.822;2023-02-21T01:10:44;99079.34;;;19.74;44.57
52777;BME280;38656;54.260;20.822;2023-02-21T01:13:29;99075.75;;;20.12;43.65
52777;BME280;38656;54.260;20.822;2023-02-21T01:16:14;99071.91;;;21.19;42.58
52777;BME280;38656;54.260;20.822;2023-02-21T01:18:58;99071.03;;;20.32;42.58
52777;BME280;38656;54.260;20.822;2023-02-21T01:21:43;99050.03;;;21.03;42.46
52777;BME280;38656;54.260;20.822;2023-02-21T01:24:28;99054.59;;;19.78;43.58
52777;BME280;38656;54.260;20.822;2023-02-21T01:27:12;99050.22;;;21.51;41.47
52777;BME280;38656;54.260;20.822;2023-02-21T01:29:57;99040.28;;;20.91;43.84
52777;BME280;38656;54.260;20.822;2023-02-21T01:32:42;99061.69;;;19.91;42.83
52777;BME280;38656;54.260;20.822;2023-02-21T01:35:27;99052.97;;;20.21;43.94
52777;BME280;38656;54.260;20.822;2023-02-21T01:38:12;99044.19;;;21.67;41.44
52777;BME280;38656;54.260;20.822;2023-02-21T01:40:56;99047.81;;;20.45;43.00
52777;BME280;38656;54.260;20.822;2023-02-21T01:47:11;99052.84;;;20.34;43.32
52777;BME280;38656;54.260;20.822;2023-02-21T01:49:56;99024.72;;;20.81;43.19
52777;BME280;38656;54.260;20.822;2023-02-21T01:52:42;99036.63;;;20.85;44.16
52777;BME280;38656;54.260;20.822;2023-02-21T01:55:27;99042.09;;;21.69;41.56
52777;BME280;38656;54.260;20.822;2023-02-21T01:58:13;99048.41;;;19.78;43.73
52777;BME280;38656;54.260;20.822;2023-02-21T02:00:57;99028.06;;;21.67;41.33
52777;BME280;38656;54.260;20.822;2023-02-21T02:03:42;99044.72;;;22.12;41.16
52777;BME280;38656;54.260;20.822;2023-02-21T02:06:27;99054.81;;;21.62;42.09
52777;BME280;38656;54.260;20.822;2023-02-21T02:09:19;99045.84;;;22.63;40.43
52777;BME280;38656;54.260;20.822;2023-02-21T02:15:10;99035.16;;;20.71;42.43
52777;BME280;38656;54.260;20.822;2023-02-21T02:33:59;99013.66;;;19.07;44.96
52777;BME280;38656;54.260;20.822;2023-02-21T02:36:41;99018.00;;;20.53;43.78
52777;BME280;38656;54.260;20.822;2023-02-21T02:39:30;99008.53;;;21.18;42.98
52777;BME280;38656;54.260;20.822;2023-02-21T02:42:32;99024.91;;;20.61;45.08
52777;BME280;38656;54.260;20.822;2023-02-21T02:45:13;99025.75;;;19.99;44.58
52777;BME280;38656;54.260;20.822;2023-02-21T02:47:43;99012.91;;;21.85;42.40
52777;BME280;38656;54.260;20.822;2023-02-21T02:50:11;99014.41;;;19.72;44.87
52777;BME280;38656;54.260;20.822;2023-02-21T02:52:51;99015.91;;;21.77;42.74
52777;BME280;38656;54.260;20.822;2023-02-21T02:58:00;99019.44;;;21.04;44.87
52777;BME280;38656;54.260;20.822;2023-02-21T03:00:27;99020.16;;;20.44;45.34
52777;BME280;38656;54.260;20.822;2023-02-21T03:11:17;99024.84;;;20.30;45.97
52777;BME280;38656;54.260;20.822;2023-02-21T03:14:00;99034.09;;;20.90;45.99
52777;BME280;38656;54.260;20.822;2023-02-21T03:16:37;99029.56;;;21.63;46.49
52777;BME280;38656;54.260;20.822;2023-02-21T03:21:46;99036.75;;;22.17;44.93
52777;BME280;38656;54.260;20.822;2023-02-21T03:24:14;99037.69;;;21.45;44.86
52777;BME280;38656;54.260;20.822;2023-02-21T03:26:43;99027.28;;;22.14;49.04
52777;BME280;38656;54.260;20.822;2023-02-21T03:29:11;99039.47;;;18.75;50.97
52777;BME280;38656;54.260;20.822;2023-02-21T03:31:46;99031.69;;;20.26;51.35
52777;BME280;38656;54.260;20.822;2023-02-21T03:34:15;99046.75;;;19.77;50.93
52777;BME280;38656;54.260;20.822;2023-02-21T03:36:41;99029.47;;;20.60;49.21
52777;BME280;38656;54.260;20.822;2023-02-21T03:39:08;99038.38;;;22.06;48.09
52777;BME280;38656;54.260;20.822;2023-02-21T03:41:34;99044.28;;;20.01;48.42
52777;BME280;38656;54.260;20.822;2023-02-21T03:44:00;99045.31;;;18.52;49.60
52777;BME280;38656;54.260;20.822;2023-02-21T03:46:26;99029.28;;;21.11;47.64
52777;BME280;38656;54.260;20.822;2023-02-21T03:48:52;99049.41;;;21.20;47.31
52777;BME280;38656;54.260;20.822;2023-02-21T03:51:18;99032.09;;;19.54;48.21
52777;BME280;38656;54.260;20.822;2023-02-21T03:53:45;99051.63;;;20.74;45.81
52777;BME280;38656;54.260;20.822;2023-02-21T03:56:11;99042.56;;;20.31;47.13
52777;BME280;38656;54.260;20.822;2023-02-21T03:58:37;99047.50;;;20.34;46.89
52777;BME280;38656;54.260;20.822;2023-02-21T04:01:03;99051.88;;;20.04;47.57
52777;BME280;38656;54.260;20.822;2023-02-21T04:03:30;99044.44;;;20.86;48.04
52777;BME280;38656;54.260;20.822;2023-02-21T04:05:56;99053.69;;;20.54;47.15
52777;BME280;38656;54.260;20.822;2023-02-21T04:08:23;99049.56;;;21.07;47.94
52777;BME280;38656;54.260;20.822;2023-02-21T04:10:49;99056.88;;;19.43;47.52
52777;BME280;38656;54.260;20.822;2023-02-21T04:13:15;99035.81;;;21.76;45.29
52777;BME280;38656;54.260;20.822;2023-02-21T04:15:41;99043.59;;;20.12;48.07
52777;BME280;38656;54.260;20.822;2023-02-21T04:18:07;99059.09;;;22.41;45.42
52777;BME280;38656;54.260;20.822;2023-02-21T04:20:34;99034.84;;;20.97;46.36
52777;BME280;38656;54.260;20.822;2023-02-21T04:23:00;99040.19;;;21.28;45.17
52777;BME280;38656;54.260;20.822;2023-02-21T04:25:26;99034.34;;;20.26;46.44
52777;BME280;38656;54.260;20.822;2023-02-21T04:27:52;99051.38;;;22.09;46.30
52777;BME280;38656;54.260;20.822;2023-02-21T04:30:18;99051.03;;;20.10;47.27
52777;BME280;38656;54.260;20.822;2023-02-21T04:32:44;99061.78;;;20.28;47.95
52777;BME280;38656;54.260;20.822;2023-02-21T04:35:11;99062.63;;;21.52;45.08
52777;BME280;38656;54.260;20.822;2023-02-21T04:37:37;99059.56;;;21.60;44.82
52777;BME280;38656;54.260;20.822;2023-02-21T04:40:03;99047.41;;;21.15;46.20
52777;BME280;38656;54.260;20.822;2023-02-21T04:42:29;99063.38;;;20.11;47.46
52777;BME280;38656;54.260;20.822;2023-02-21T04:44:55;99069.69;;;22.00;45.90
52777;BME280;38656;54.260;20.822;2023-02-21T04:47:22;99071.06;;;21.67;46.83
52777;BME280;38656;54.260;20.822;2023-02-21T04:49:48;99082.47;;;19.64;49.00
52777;BME280;38656;54.260;20.822;2023-02-21T04:52:17;99075.97;;;19.85;51.06
52777;BME280;38656;54.260;20.822;2023-02-21T04:54:46;99072.34;;;19.41;49.71
52777;BME280;38656;54.260;20.822;2023-02-21T04:57:13;99067.09;;;20.54;49.16
52777;BME280;38656;54.260;20.822;2023-02-21T04:59:39;99079.31;;;21.54;48.38
52777;BME280;38656;54.260;20.822;2023-02-21T05:02:05;99060.69;;;21.71;46.35
52777;BME280;38656;54.260;20.822;2023-02-21T05:04:36;99074.44;;;20.21;50.20
52777;BME280;38656;54.260;20.822;2023-02-21T05:07:03;99070.91;;;20.83;50.06
52777;BME280;38656;54.260;20.822;2023-02-21T05:09:30;99073.34;;;19.47;59.81
52777;BME280;38656;54.260;20.822;2023-02-21T05:11:56;99075.69;;;19.61;54.66
52777;BME280;38656;54.260;20.822;2023-02-21T05:14:22;99071.31;;;21.78;49.69
52777;BME280;38656;54.260;20.822;2023-02-21T05:16:48;99080.88;;;19.88;53.93
52777;BME280;38656;54.260;20.822;2023-02-21T05:19:19;99073.72;;;22.57;48.55
52777;BME280;38656;54.260;20.822;2023-02-21T05:21:54;99072.63;;;21.99;47.77
52777;BME280;38656;54.260;20.822;2023-02-21T05:24:20;99081.56;;;22.47;47.67
52777;BME280;38656;54.260;20.822;2023-02-21T05:26:47;99083.38;;;23.68;45.58
52777;BME280;38656;54.260;20.822;2023-02-21T05:29:13;99087.41;;;21.35;49.03
52777;BME280;38656;54.260;20.822;2023-02-21T05:31:40;99075.81;;;20.49;50.37
52777;BME280;38656;54.260;20.822;2023-02-21T05:34:06;99088.66;;;21.02;49.90
52777;BME280;38656;54.260;20.822;2023-02-21T05:36:32;99096.78;;;21.87;46.07
52777;BME280;38656;54.260;20.822;2023-02-21T05:38:59;99103.31;;;21.00;48.46
52777;BME280;38656;54.260;20.822;2023-02-21T05:41:25;99095.31;;;20.38;49.63
52777;BME280;38656;54.260;20.822;2023-02-21T05:43:51;99104.59;;;20.79;49.25
52777;BME280;38656;54.260;20.822;2023-02-21T05:46:27;99102.56;;;20.56;49.84
52777;BME280;38656;54.260;20.822;2023-02-21T05:48:55;99120.34;;;20.94;46.05
52777;BME280;38656;54.260;20.822;2023-02-21T05:51:22;99123.91;;;21.06;48.39
52777;BME280;38656;54.260;20.822;2023-02-21T05:53:49;99128.06;;;19.57;50.91
52777;BME280;38656;54.260;20.822;2023-02-21T05:56:16;99122.25;;;21.24;49.45
52777;BME280;38656;54.260;20.822;2023-02-21T05:58:43;99125.25;;;21.64;47.23
52777;BME280;38656;54.260;20.822;2023-02-21T06:01:10;99133.53;;;20.51;48.92
52777;BME280;38656;54.260;20.822;2023-02-21T06:03:36;99135.19;;;21.64;48.81
52777;BME280;38656;54.260;20.822;2023-02-21T06:06:02;99146.38;;;20.24;49.43
52777;BME280;38656;54.260;20.822;2023-02-21T06:08:28;99145.22;;;21.19;49.08
52777;BME280;38656;54.260;20.822;2023-02-21T06:10:54;99141.34;;;21.95;47.31
52777;BME280;38656;54.260;20.822;2023-02-21T06:13:21;99175.00;;;20.99;48.87
52777;BME280;38656;54.260;20.822;2023-02-21T06:15:47;99162.22;;;22.82;46.83
52777;BME280;38656;54.260;20.822;2023-02-21T06:18:14;99162.72;;;22.43;47.39
52777;BME280;38656;54.260;20.822;2023-02-21T06:20:41;99167.59;;;21.81;48.34
52777;BME280;38656;54.260;20.822;2023-02-21T06:23:07;99179.00;;;19.89;50.45
52777;BME280;38656;54.260;20.822;2023-02-21T06:25:33;99186.88;;;20.85;48.40
52777;BME280;38656;54.260;20.822;2023-02-21T06:27:59;99180.19;;;21.31;48.24
52777;BME280;38656;54.260;20.822;2023-02-21T06:30:25;99190.84;;;20.07;52.26
52777;BME280;38656;54.260;20.822;2023-02-21T06:32:52;99200.84;;;20.94;48.83
52777;BME280;38656;54.260;20.822;2023-02-21T06:35:18;99192.13;;;19.97;51.17
52777;BME280;38656;54.260;20.822;2023-02-21T06:37:44;99194.50;;;20.12;50.01
52777;BME280;38656;54.260;20.822;2023-02-21T06:40:10;99205.22;;;21.81;48.03
52777;BME280;38656;54.260;20.822;2023-02-21T06:42:36;99200.19;;;21.84;48.13
52777;BME280;38656;54.260;20.822;2023-02-21T06:45:03;99214.75;;;20.33;49.66
52777;BME280;38656;54.260;20.822;2023-02-21T06:47:30;99209.91;;;21.36;49.03
52777;BME280;38656;54.260;20.822;2023-02-21T06:49:57;99207.38;;;22.02;48.20
52777;BME280;38656;54.260;20.822;2023-02-21T06:52:23;99222.53;;;21.54;48.91
52777;BME280;38656;54.260;20.822;2023-02-21T06:54:50;99226.97;;;20.29;50.03
52777;BME280;38656;54.260;20.822;2023-02-21T06:57:16;99226.22;;;20.73;49.78
52777;BME280;38656;54.260;20.822;2023-02-21T06:59:42;99240.72;;;20.72;50.63
52777;BME280;38656;54.260;20.822;2023-02-21T07:02:16;99229.53;;;22.94;47.52
52777;BME280;38656;54.260;20.822;2023-02-21T07:04:46;99231.22;;;20.69;48.70
52777;BME280;38656;54.260;20.822;2023-02-21T07:07:13;99229.44;;;21.25;50.23
52777;BME280;38656;54.260;20.822;2023-02-21T07:09:39;99239.38;;;20.81;50.41
52777;BME280;38656;54.260;20.822;2023-02-21T07:12:06;99243.88;;;19.33;51.51
52777;BME280;38656;54.260;20.822;2023-02-21T07:14:34;99252.38;;;20.52;50.34
52777;BME280;38656;54.260;20.822;2023-02-21T07:17:00;99249.56;;;21.34;50.55
52777;BME280;38656;54.260;20.822;2023-02-21T07:19:26;99253.81;;;22.09;48.34
52777;BME280;38656;54.260;20.822;2023-02-21T07:21:52;99246.66;;;20.99;50.61
52777;BME280;38656;54.260;20.822;2023-02-21T07:24:18;99261.72;;;20.43;50.20
52777;BME280;38656;54.260;20.822;2023-02-21T07:26:45;99254.50;;;22.05;47.75
52777;BME280;38656;54.260;20.822;2023-02-21T07:29:11;99271.50;;;21.31;49.24
52777;BME280;38656;54.260;20.822;2023-02-21T07:31:37;99264.41;;;21.92;47.95
52777;BME280;38656;54.260;20.822;2023-02-21T07:34:03;99276.16;;;20.74;48.50
52777;BME280;38656;54.260;20.822;2023-02-21T07:36:29;99277.06;;;23.00;46.51
52777;BME280;38656;54.260;20.822;2023-02-21T07:38:56;99276.63;;;21.14;48.58
52777;BME280;38656;54.260;20.822;2023-02-21T07:41:22;99286.88;;;21.43;49.03
52777;BME280;38656;54.260;20.822;2023-02-21T07:43:48;99299.09;;;19.34;53.33
52777;BME280;38656;54.260;20.822;2023-02-21T07:46:16;99294.44;;;23.28;46.74
52777;BME280;38656;54.260;20.822;2023-02-21T07:48:43;99305.13;;;24.16;43.95
52777;BME280;38656;54.260;20.822;2023-02-21T07:51:10;99305.53;;;23.20;44.86
52777;BME280;38656;54.260;20.822;2023-02-21T07:53:36;99314.91;;;24.63;43.36
52777;BME280;38656;54.260;20.822;2023-02-21T07:56:03;99335.00;;;21.00;47.01
52777;BME280;38656;54.260;20.822;2023-02-21T07:58:29;99327.16;;;22.89;45.94
52777;BME280;38656;54.260;20.822;2023-02-21T08:00:57;99347.78;;;21.49;46.45
52777;BME280;38656;54.260;20.822;2023-02-21T08:03:23;99353.28;;;20.08;49.51
52777;BME280;38656;54.260;20.822;2023-02-21T08:05:49;99336.06;;;21.18;49.41
52777;BME280;38656;54.260;20.822;2023-02-21T08:08:16;99342.88;;;21.64;46.98
52777;BME280;38656;54.260;20.822;2023-02-21T08:10:42;99352.44;;;21.60;48.71
52777;BME280;38656;54.260;20.822;2023-02-21T08:13:08;99355.88;;;21.67;48.49
52777;BME280;38656;54.260;20.822;2023-02-21T08:15:34;99388.19;;;20.40;47.48
52777;BME280;38656;54.260;20.822;2023-02-21T08:18:00;99359.16;;;22.06;48.49
52777;BME280;38656;54.260;20.822;2023-02-21T08:20:27;99384.72;;;21.28;48.02
52777;BME280;38656;54.260;20.822;2023-02-21T08:22:53;99385.97;;;20.75;50.22
52777;BME280;38656;54.260;20.822;2023-02-21T08:25:19;99381.84;;;22.10;47.86
52777;BME280;38656;54.260;20.822;2023-02-21T08:27:45;99388.22;;;22.16;47.31
52777;BME280;38656;54.260;20.822;2023-02-21T08:30:14;99410.88;;;21.65;47.09
52777;BME280;38656;54.260;20.822;2023-02-21T08:32:41;99407.84;;;21.98;45.85
52777;BME280;38656;54.260;20.822;2023-02-21T08:35:13;99400.97;;;21.84;48.22
52777;BME280;38656;54.260;20.822;2023-02-21T08:37:42;99419.50;;;22.10;45.76
52777;BME280;38656;54.260;20.822;2023-02-21T08:40:10;99418.47;;;23.45;46.32
52777;BME280;38656;54.260;20.822;2023-02-21T08:42:38;99421.25;;;21.11;49.20
52777;BME280;38656;54.260;20.822;2023-02-21T08:45:04;99429.91;;;24.92;42.37
52777;BME280;38656;54.260;20.822;2023-02-21T08:47:34;99421.38;;;23.20;45.24
52777;BME280;38656;54.260;20.822;2023-02-21T08:50:01;99435.69;;;23.79;43.63
52777;BME280;38656;54.260;20.822;2023-02-21T08:52:27;99445.63;;;20.64;47.24
52777;BME280;38656;54.260;20.822;2023-02-21T08:54:53;99443.88;;;21.72;52.02
52777;BME280;38656;54.260;20.822;2023-02-21T08:57:19;99446.97;;;22.13;46.46
52777;BME280;38656;54.260;20.822;2023-02-21T08:59:46;99465.91;;;23.34;44.39
52777;BME280;38656;54.260;20.822;2023-02-21T09:02:17;99459.22;;;24.31;44.13
52777;BME280;38656;54.260;20.822;2023-02-21T09:04:44;99460.63;;;23.15;45.01
52777;BME280;38656;54.260;20.822;2023-02-21T09:07:14;99473.38;;;22.41;46.19
52777;BME280;38656;54.260;20.822;2023-02-21T09:09:41;99477.75;;;23.45;42.43
52777;BME280;38656;54.260;20.822;2023-02-21T09:12:08;99476.75;;;24.69;41.69
52777;BME280;38656;54.260;20.822;2023-02-21T09:14:35;99481.09;;;24.18;42.30
52777;BME280;38656;54.260;20.822;2023-02-21T09:17:04;99487.53;;;25.44;42.56
52777;BME280;38656;54.260;20.822;2023-02-21T09:19:30;99489.81;;;23.42;43.95
52777;BME280;38656;54.260;20.822;2023-02-21T09:21:56;99497.16;;;24.13;42.57
52777;BME280;38656;54.260;20.822;2023-02-21T09:24:24;99501.25;;;22.47;43.86
52777;BME280;38656;54.260;20.822;2023-02-21T09:26:51;99505.31;;;25.11;42.39
52777;BME280;38656;54.260;20.822;2023-02-21T09:29:26;99504.69;;;23.03;43.58
52777;BME280;38656;54.260;20.822;2023-02-21T09:31:53;99517.13;;;23.46;44.33
52777;BME280;38656;54.260;20.822;2023-02-21T09:34:19;99521.97;;;22.95;43.88
52777;BME280;38656;54.260;20.822;2023-02-21T09:36:47;99522.78;;;24.91;40.91
52777;BME280;38656;54.260;20.822;2023-02-21T09:39:16;99526.31;;;24.51;40.39
52777;BME280;38656;54.260;20.822;2023-02-21T09:41:43;99532.59;;;25.89;39.52
52777;BME280;38656;54.260;20.822;2023-02-21T09:44:18;99533.25;;;26.30;39.60
52777;BME280;38656;54.260;20.822;2023-02-21T09:46:51;99538.66;;;24.24;40.80
52777;BME280;38656;54.260;20.822;2023-02-21T09:49:20;99549.31;;;24.54;39.83
52777;BME280;38656;54.260;20.822;2023-02-21T09:51:49;99551.84;;;22.56;43.96
52777;BME280;38656;54.260;20.822;2023-02-21T09:54:27;99557.34;;;22.98;42.99
52777;BME280;38656;54.260;20.822;2023-02-21T09:56:59;99563.94;;;23.75;41.54
52777;BME280;38656;54.260;20.822;2023-02-21T09:59:26;99565.16;;;24.50;41.83
52777;BME280;38656;54.260;20.822;2023-02-21T10:02:18;99576.16;;;24.84;40.24
52777;BME280;38656;54.260;20.822;2023-02-21T10:13:05;99599.44;;;23.30;42.51
52777;BME280;38656;54.260;20.822;2023-02-21T10:15:46;99604.25;;;23.70;41.38
52777;BME280;38656;54.260;20.822;2023-02-21T10:18:37;99603.41;;;23.09;42.03
52777;BME280;38656;54.260;20.822;2023-02-21T10:21:21;99603.19;;;25.13;39.97
52777;BME280;38656;54.260;20.822;2023-02-21T10:23:50;99605.00;;;23.77;41.36
52777;BME280;38656;54.260;20.822;2023-02-21T10:26:26;99609.41;;;22.74;40.77
52777;BME280;38656;54.260;20.822;2023-02-21T10:28:53;99620.16;;;23.60;41.58
52777;BME280;38656;54.260;20.822;2023-02-21T10:31:33;99628.03;;;22.75;42.68
52777;BME280;38656;54.260;20.822;2023-02-21T10:34:01;99627.47;;;22.23;43.80
52777;BME280;38656;54.260;20.822;2023-02-21T10:36:28;99620.19;;;24.02;40.69
52777;BME280;38656;54.260;20.822;2023-02-21T10:41:29;99624.81;;;25.13;40.03
52777;BME280;38656;54.260;20.822;2023-02-21T10:49:45;99640.97;;;25.37;38.91
52777;BME280;38656;54.260;20.822;2023-02-21T10:52:16;99632.00;;;25.48;39.80
52777;BME280;38656;54.260;20.822;2023-02-21T10:57:30;99657.56;;;22.13;42.27
52777;BME280;38656;54.260;20.822;2023-02-21T10:59:57;99663.84;;;22.00;42.88
52777;BME280;38656;54.260;20.822;2023-02-21T11:02:31;99671.44;;;23.41;41.83
52777;BME280;38656;54.260;20.822;2023-02-21T11:05:13;99674.88;;;23.60;40.17
52777;BME280;38656;54.260;20.822;2023-02-21T11:07:54;99670.09;;;23.13;40.96
52777;BME280;38656;54.260;20.822;2023-02-21T11:13:15;99685.03;;;24.07;39.65
52777;BME280;38656;54.260;20.822;2023-02-21T11:15:43;99686.22;;;25.41;39.10
52777;BME280;38656;54.260;20.822;2023-02-21T11:20:38;99696.34;;;24.28;38.29
52777;BME280;38656;54.260;20.822;2023-02-21T11:23:26;99696.59;;;23.17;40.84
52777;BME280;38656;54.260;20.822;2023-02-21T11:26:09;99699.25;;;22.98;40.29
52777;BME280;38656;54.260;20.822;2023-02-21T11:28:41;99711.13;;;21.24;42.43
52777;BME280;38656;54.260;20.822;2023-02-21T11:31:25;99711.47;;;23.68;39.63
52777;BME280;38656;54.260;20.822;2023-02-21T11:34:04;99718.31;;;22.53;41.47
52777;BME280;38656;54.260;20.822;2023-02-21T11:36:42;99725.16;;;22.49;42.61
52777;BME280;38656;54.260;20.822;2023-02-21T11:39:38;99721.50;;;22.11;42.16
52777;BME280;38656;54.260;20.822;2023-02-21T11:48:00;99741.25;;;22.80;41.65
52777;BME280;38656;54.260;20.822;2023-02-21T11:50:30;99742.50;;;23.59;41.50
52777;BME280;38656;54.260;20.822;2023-02-21T11:53:05;99742.09;;;23.25;40.47
52777;BME280;38656;54.260;20.822;2023-02-21T11:55:38;99748.59;;;23.84;39.86
52777;BME280;38656;54.260;20.822;2023-02-21T11:58:29;99752.56;;;22.89;41.14
52777;BME280;38656;54.260;20.822;2023-02-21T12:01:04;99750.78;;;22.26;40.63
52777;BME280;38656;54.260;20.822;2023-02-21T12:03:43;99762.41;;;23.76;39.12
52777;BME280;38656;54.260;20.822;2023-02-21T12:08:57;99756.84;;;21.76;41.43
52777;BME280;38656;54.260;20.822;2023-02-21T12:11:45;99762.88;;;21.65;41.86
52777;BME280;38656;54.260;20.822;2023-02-21T12:14:54;99767.88;;;24.18;38.30
52777;BME280;38656;54.260;20.822;2023-02-21T12:17:26;99785.75;;;23.82;38.56
52777;BME280;38656;54.260;20.822;2023-02-21T12:48:01;99800.06;;;24.32;37.77
52777;BME280;38656;54.260;20.822;2023-02-21T12:50:34;99811.84;;;23.33;40.02
52777;BME280;38656;54.260;20.822;2023-02-21T12:53:07;99818.44;;;23.93;38.33
52777;BME280;38656;54.260;20.822;2023-02-21T12:56:02;99823.97;;;23.98;39.08
52777;BME280;38656;54.260;20.822;2023-02-21T12:58:37;99830.84;;;22.62;39.64
52777;BME280;38656;54.260;20.822;2023-02-21T13:01:16;99829.16;;;22.68;41.25
52777;BME280;38656;54.260;20.822;2023-02-21T13:09:32;99842.22;;;23.22;38.53
52777;BME280;38656;54.260;20.822;2023-02-21T13:12:08;99837.06;;;23.20;39.86
52777;BME280;38656;54.260;20.822;2023-02-21T13:17:43;99853.41;;;22.30;40.67
52777;BME280;38656;54.260;20.822;2023-02-21T13:20:19;99856.03;;;22.75;39.93
52777;BME280;38656;54.260;20.822;2023-02-21T13:26:30;99870.66;;;24.89;38.07
52777;BME280;38656;54.260;20.822;2023-02-21T13:28:59;99862.53;;;22.92;40.40
52777;BME280;38656;54.260;20.822;2023-02-21T13:31:33;99875.66;;;23.58;39.30
52777;BME280;38656;54.260;20.822;2023-02-21T13:34:07;99891.31;;;23.24;39.54
52777;BME280;38656;54.260;20.822;2023-02-21T13:39:12;99894.47;;;24.50;37.96
52777;BME280;38656;54.260;20.822;2023-02-21T13:41:55;99890.91;;;25.70;36.33
52777;BME280;38656;54.260;20.822;2023-02-21T14:08:28;99932.09;;;25.72;36.52
52777;BME280;38656;54.260;20.822;2023-02-21T14:14:03;99944.56;;;24.95;37.40
52777;BME280;38656;54.260;20.822;2023-02-21T14:16:47;99952.72;;;24.09;38.68
52777;BME280;38656;54.260;20.822;2023-02-21T14:19:35;99951.25;;;24.25;39.25
52777;BME280;38656;54.260;20.822;2023-02-21T14:22:26;99957.69;;;24.80;38.28
52777;BME280;38656;54.260;20.822;2023-02-21T14:25:14;99960.19;;;24.26;38.98
52777;BME280;38656;54.260;20.822;2023-02-21T14:27:41;99954.91;;;25.52;36.52
52777;BME280;38656;54.260;20.822;2023-02-21T14:32:45;99963.84;;;25.53;37.10
52777;BME280;38656;54.260;20.822;2023-02-21T14:36:01;99964.41;;;25.78;36.63
52777;BME280;38656;54.260;20.822;2023-02-21T14:38:26;99979.78;;;25.31;37.45
52777;BME280;38656;54.260;20.822;2023-02-21T14:50:13;99989.34;;;23.98;37.73
52777;BME280;38656;54.260;20.822;2023-02-21T14:52:51;99991.50;;;26.66;35.84
52777;BME280;38656;54.260;20.822;2023-02-21T14:55:43;99999.94;;;25.16;37.50
52777;BME280;38656;54.260;20.822;2023-02-21T14:58:43;100005.31;;;23.18;39.00
52777;BME280;38656;54.260;20.822;2023-02-21T15:09:25;100025.31;;;23.35;38.96
52777;BME280;38656;54.260;20.822;2023-02-21T15:11:51;100028.97;;;23.47;39.71
52777;BME280;38656;54.260;20.822;2023-02-21T15:14:23;100038.59;;;23.62;38.64
52777;BME280;38656;54.260;20.822;2023-02-21T15:17:08;100040.75;;;24.03;38.46
52777;BME280;38656;54.260;20.822;2023-02-21T15:19:36;100041.38;;;23.17;41.46
52777;BME280;38656;54.260;20.822;2023-02-21T15:24:41;100053.66;;;23.44;40.58
52777;BME280;38656;54.260;20.822;2023-02-21T15:27:20;100051.16;;;24.00;40.73
52777;BME280;38656;54.260;20.822;2023-02-21T15:30:07;100055.72;;;23.42;41.21
52777;BME280;38656;54.260;20.822;2023-02-21T15:32:35;100056.72;;;23.16;42.38
52777;BME280;38656;54.260;20.822;2023-02-21T15:35:05;100063.88;;;22.84;41.21
52777;BME280;38656;54.260;20.822;2023-02-21T15:37:34;100076.72;;;20.94;44.86
52777;BME280;38656;54.260;20.822;2023-02-21T15:40:07;100069.00;;;22.26;44.72
52777;BME280;38656;54.260;20.822;2023-02-21T15:42:40;100079.69;;;21.33;45.26
52777;BME280;38656;54.260;20.822;2023-02-21T15:45:30;100080.22;;;21.70;45.43
52777;BME280;38656;54.260;20.822;2023-02-21T15:47:59;100095.41;;;21.29;44.41
52777;BME280;38656;54.260;20.822;2023-02-21T15:52:52;100094.59;;;21.35;45.91
52777;BME280;38656;54.260;20.822;2023-02-21T15:57:59;100092.81;;;23.02;43.88
52777;BME280;38656;54.260;20.822;2023-02-21T16:00:34;100094.47;;;23.09;43.99
52777;BME280;38656;54.260;20.822;2023-02-21T16:06:12;100107.13;;;23.47;42.14
52777;BME280;38656;54.260;20.822;2023-02-21T16:11:41;100111.19;;;23.25;42.29
52777;BME280;38656;54.260;20.822;2023-02-21T16:19:42;100128.34;;;20.96;46.08